Time;durP1;ratioP1;P1;durP2;ratioP2;P2;SDS_P1;SDS_P2;PMS_P1;PMS_P2;Temp;Humidity;BMP_temperature;BMP_pressure;BME280_temperature;BME280_humidity;BME280_pressure;Samples;Min_cycle;Max_cycle;Signal;HPM_P1;HPM_P2
2021/12/06 00:02:40;;;;;;;9.30;5.90;;;4.60;99.90;;;;;;5051412;28;20220;-71
2021/12/06 00:05:27;;;;;;;8.13;5.63;;;4.70;99.90;;;;;;5048643;28;20205;-71
2021/12/06 00:08:13;;;;;;;7.88;5.97;;;4.60;99.90;;;;;;5047887;28;20319;-71
2021/12/06 00:11:06;;;;;;;7.70;6.07;;;4.60;99.90;;;;;;5051717;28;20290;-71
2021/12/06 00:13:53;;;;;;;9.45;5.88;;;4.70;99.90;;;;;;5050928;28;20229;-71
2021/12/06 00:16:39;;;;;;;10.90;6.38;;;4.60;99.90;;;;;;5050372;28;20503;-71
2021/12/06 00:19:26;;;;;;;9.20;7.00;;;4.50;99.90;;;;;;5049423;28;20224;-71
2021/12/06 00:22:14;;;;;;;8.48;6.80;;;4.40;99.90;;;;;;5052290;28;20567;-71
2021/12/06 00:25:00;;;;;;;10.38;7.45;;;4.40;99.90;;;;;;5052973;28;20689;-71
2021/12/06 00:27:46;;;;;;;10.57;7.40;;;4.30;99.90;;;;;;5043204;28;20903;-71
2021/12/06 00:30:31;;;;;;;9.55;7.60;;;4.30;99.90;;;;;;5053200;28;20205;-71
2021/12/06 00:33:17;;;;;;;9.98;8.30;;;4.30;99.90;;;;;;5050847;28;20220;-71
2021/12/06 00:36:07;;;;;;;8.75;7.18;;;4.30;99.90;;;;;;5047581;28;20282;-71
2021/12/06 00:38:53;;;;;;;10.07;7.72;;;4.20;99.90;;;;;;5046657;28;20205;-71
2021/12/06 00:41:39;;;;;;;9.23;6.97;;;4.30;99.90;;;;;;5051147;28;20571;-71
2021/12/06 00:44:25;;;;;;;16.55;7.65;;;4.30;99.90;;;;;;5052322;28;20212;-71
2021/12/06 00:47:11;;;;;;;7.68;6.60;;;4.30;99.90;;;;;;5045981;28;20206;-71
2021/12/06 00:49:57;;;;;;;7.60;6.38;;;4.30;99.90;;;;;;5051436;28;20613;-71
2021/12/06 00:52:45;;;;;;;8.35;6.30;;;4.30;99.90;;;;;;5051975;28;20220;-71
2021/12/06 00:55:31;;;;;;;10.85;7.07;;;4.30;99.90;;;;;;5051930;28;20351;-71
2021/12/06 00:58:17;;;;;;;9.77;7.38;;;4.20;99.90;;;;;;5045237;28;20291;-71
2021/12/06 01:01:05;;;;;;;7.00;6.30;;;4.20;99.90;;;;;;5051941;28;20201;-71
2021/12/06 01:03:51;;;;;;;8.65;6.07;;;4.00;99.90;;;;;;5047329;28;20579;-71
2021/12/06 01:06:37;;;;;;;10.52;7.03;;;4.00;99.90;;;;;;5048495;28;20283;-71
2021/12/06 01:09:24;;;;;;;11.55;6.80;;;4.00;99.90;;;;;;5049880;28;20208;-71
2021/12/06 01:12:10;;;;;;;7.25;6.30;;;4.00;99.90;;;;;;5048223;28;20579;-71
2021/12/06 01:14:56;;;;;;;11.18;6.20;;;4.10;99.90;;;;;;5050754;28;20225;-71
2021/12/06 01:17:42;;;;;;;7.95;6.38;;;4.00;99.90;;;;;;5045490;28;20335;-71
2021/12/06 01:20:30;;;;;;;8.40;6.50;;;4.00;99.90;;;;;;5052214;28;20208;-71
2021/12/06 01:23:18;;;;;;;10.75;5.85;;;4.10;99.90;;;;;;5051312;28;20235;-71
2021/12/06 01:26:26;;;;;;;9.43;5.80;;;4.20;99.90;;;;;;5050299;28;20204;-71
2021/12/06 01:29:38;;;;;;;7.38;6.00;;;4.30;99.90;;;;;;5046534;28;20204;-71
2021/12/06 01:32:47;;;;;;;8.70;5.80;;;4.30;99.90;;;;;;5047015;28;20595;-71
2021/12/06 01:41:42;;;;;;;12.13;6.10;;;4.40;99.90;;;;;;5050143;28;20201;-71
2021/12/06 01:44:30;;;;;;;9.10;6.65;;;4.40;99.90;;;;;;5074160;22;20279;-71
2021/12/06 01:47:17;;;;;;;8.20;6.38;;;4.20;99.90;;;;;;5049285;28;20216;-72
2021/12/06 01:50:08;;;;;;;8.57;6.50;;;4.20;99.90;;;;;;5054552;28;20568;-71
2021/12/06 01:52:57;;;;;;;10.10;6.70;;;4.20;99.90;;;;;;5049901;28;20266;-71
2021/12/06 01:55:43;;;;;;;7.88;6.60;;;4.10;99.90;;;;;;5051499;28;21205;-71
2021/12/06 01:58:30;;;;;;;9.05;5.68;;;4.20;99.90;;;;;;5052387;28;20340;-71
2021/12/06 02:01:16;;;;;;;6.28;5.05;;;4.30;99.90;;;;;;5048214;28;20557;-71
2021/12/06 02:04:03;;;;;;;8.55;6.57;;;4.30;99.90;;;;;;5056196;28;20745;-71
2021/12/06 02:06:49;;;;;;;9.98;5.95;;;4.30;99.90;;;;;;5046439;28;20204;-71
2021/12/06 02:09:35;;;;;;;6.18;5.20;;;4.30;99.90;;;;;;5053375;28;20213;-71
2021/12/06 02:12:22;;;;;;;8.82;6.50;;;4.30;99.90;;;;;;5056657;28;20299;-68
2021/12/06 02:15:23;;;;;;;7.63;5.75;;;4.20;99.90;;;;;;5047267;28;20310;-71
2021/12/06 02:18:15;;;;;;;7.93;6.25;;;4.20;99.90;;;;;;5053916;28;20226;-71
2021/12/06 02:21:10;;;;;;;8.02;6.93;;;4.20;99.90;;;;;;5064651;28;20201;-71
2021/12/06 02:23:57;;;;;;;8.35;5.97;;;4.20;99.90;;;;;;5049962;28;20224;-72
2021/12/06 02:26:45;;;;;;;10.93;5.63;;;4.10;99.90;;;;;;5052110;28;20685;-71
2021/12/06 02:29:31;;;;;;;11.52;6.47;;;4.00;99.90;;;;;;5051729;28;20201;-70
2021/12/06 02:32:17;;;;;;;8.57;6.32;;;4.00;99.90;;;;;;5054564;28;20204;-71
2021/12/06 02:35:06;;;;;;;7.28;5.78;;;3.90;99.90;;;;;;5045358;28;20216;-71
2021/12/06 02:37:55;;;;;;;7.57;5.22;;;3.80;99.90;;;;;;5053765;28;20259;-70
2021/12/06 02:40:41;;;;;;;6.18;5.50;;;3.70;99.90;;;;;;5054769;28;20212;-72
2021/12/06 02:43:27;;;;;;;8.15;6.38;;;3.60;99.90;;;;;;5062435;28;20610;-72
2021/12/06 02:46:13;;;;;;;9.27;6.95;;;3.50;99.90;;;;;;5049473;28;20228;-71
2021/12/06 02:48:58;;;;;;;7.22;5.43;;;3.40;99.90;;;;;;5059992;28;20561;-71
2021/12/06 02:51:45;;;;;;;8.82;6.40;;;3.30;99.90;;;;;;5054920;28;20585;-71
2021/12/06 02:54:32;;;;;;;9.18;6.90;;;3.20;99.90;;;;;;5059872;28;20307;-71
2021/12/06 02:57:31;;;;;;;7.57;5.45;;;3.20;99.90;;;;;;5059356;28;20690;-71
2021/12/06 03:00:17;;;;;;;11.07;7.90;;;3.20;99.90;;;;;;5053387;28;20283;-71
2021/12/06 03:03:03;;;;;;;10.48;7.95;;;3.20;99.90;;;;;;5057802;28;20220;-71
2021/12/06 03:05:50;;;;;;;8.82;6.43;;;3.20;99.90;;;;;;5050968;28;20566;-72
2021/12/06 03:08:38;;;;;;;8.52;6.57;;;3.20;99.90;;;;;;5060855;28;20255;-72
2021/12/06 03:11:28;;;;;;;7.72;6.25;;;3.20;99.90;;;;;;5060301;28;20204;-69
2021/12/06 03:14:17;;;;;;;9.45;6.85;;;3.10;99.90;;;;;;5051429;28;20217;-70
2021/12/06 03:17:07;;;;;;;13.43;9.40;;;3.00;99.90;;;;;;5051095;28;20307;-70
2021/12/06 03:19:53;;;;;;;12.70;8.98;;;3.00;99.90;;;;;;5064588;28;20216;-71
2021/12/06 03:22:38;;;;;;;11.18;8.10;;;3.00;99.90;;;;;;5057427;28;20201;-70
2021/12/06 03:25:24;;;;;;;9.80;7.93;;;3.10;99.90;;;;;;5050906;28;20209;-71
2021/12/06 03:28:11;;;;;;;12.50;7.60;;;3.10;99.90;;;;;;5053438;28;20263;-72
2021/12/06 03:30:57;;;;;;;10.80;8.52;;;3.20;99.90;;;;;;5056011;28;20553;-71
2021/12/06 03:33:46;;;;;;;10.07;8.13;;;3.10;99.90;;;;;;5059373;28;20252;-72
2021/12/06 03:36:34;;;;;;;23.58;10.13;;;3.10;99.90;;;;;;5050770;28;20217;-72
2021/12/06 03:39:23;;;;;;;11.65;9.55;;;3.20;99.90;;;;;;5062171;28;20205;-71
2021/12/06 03:42:11;;;;;;;10.20;8.57;;;3.20;99.90;;;;;;5055596;28;20199;-71
2021/12/06 03:44:59;;;;;;;11.18;8.00;;;3.20;99.90;;;;;;5053719;28;20201;-71
2021/12/06 03:47:44;;;;;;;11.98;8.95;;;3.30;99.90;;;;;;5062642;28;20200;-71
2021/12/06 03:50:30;;;;;;;10.10;8.05;;;3.40;99.90;;;;;;5056208;28;20224;-72
2021/12/06 03:53:17;;;;;;;12.05;9.45;;;3.30;99.90;;;;;;5060066;28;20225;-72
2021/12/06 03:56:04;;;;;;;13.40;9.73;;;3.20;99.90;;;;;;5053568;28;20294;-72
2021/12/06 03:58:49;;;;;;;11.48;9.27;;;3.10;99.90;;;;;;5056534;28;20204;-71
2021/12/06 04:01:36;;;;;;;9.98;8.95;;;3.10;99.90;;;;;;5060560;28;20209;-72
2021/12/06 04:04:22;;;;;;;13.35;9.05;;;3.10;99.90;;;;;;5049889;28;20631;-71
2021/12/06 04:07:09;;;;;;;14.27;10.48;;;3.20;99.90;;;;;;5057085;28;20200;-71
2021/12/06 04:09:55;;;;;;;14.02;9.88;;;3.20;99.90;;;;;;5058788;28;20204;-72
2021/12/06 04:12:41;;;;;;;15.20;12.30;;;3.20;99.90;;;;;;5057945;28;20204;-71
2021/12/06 04:15:29;;;;;;;12.93;9.40;;;3.10;99.90;;;;;;5049564;28;20228;-71
2021/12/06 04:18:16;;;;;;;11.00;9.80;;;3.00;99.90;;;;;;5050824;28;20674;-71
2021/12/06 04:21:02;;;;;;;13.73;10.88;;;2.90;99.90;;;;;;5064182;28;20212;-72
2021/12/06 04:23:48;;;;;;;13.70;11.45;;;3.00;99.90;;;;;;5054217;28;20662;-72
2021/12/06 04:26:34;;;;;;;15.13;11.02;;;3.00;99.90;;;;;;5058579;28;20693;-71
2021/12/06 04:29:20;;;;;;;15.00;11.52;;;3.00;99.90;;;;;;5053461;28;20583;-72
2021/12/06 04:32:07;;;;;;;17.13;11.48;;;3.10;99.90;;;;;;5055443;28;20204;-72
2021/12/06 04:34:54;;;;;;;12.43;10.07;;;3.10;99.90;;;;;;5043820;28;20215;-71
2021/12/06 04:37:40;;;;;;;12.95;10.20;;;3.10;99.90;;;;;;5058248;28;20286;-72
2021/12/06 04:40:27;;;;;;;11.85;9.95;;;3.10;99.90;;;;;;5055687;28;20208;-71
2021/12/06 04:43:13;;;;;;;15.13;11.40;;;3.10;99.90;;;;;;5058435;28;20235;-70
2021/12/06 04:45:58;;;;;;;13.20;9.98;;;3.10;99.90;;;;;;5056749;28;20677;-71
2021/12/06 04:48:44;;;;;;;11.85;9.88;;;3.10;99.90;;;;;;5063083;28;20739;-71
2021/12/06 04:51:31;;;;;;;11.43;10.07;;;3.10;99.90;;;;;;5059567;28;20332;-72
2021/12/06 04:54:19;;;;;;;21.05;10.70;;;3.10;99.90;;;;;;5048004;28;20279;-71
2021/12/06 04:57:09;;;;;;;14.38;11.35;;;3.00;99.90;;;;;;5057107;28;20224;-72
2021/12/06 04:59:59;;;;;;;15.63;11.38;;;3.00;99.90;;;;;;5054658;28;20205;-72
2021/12/06 05:02:45;;;;;;;13.98;10.75;;;2.90;99.90;;;;;;5057701;28;20649;-72
2021/12/06 05:05:36;;;;;;;17.40;11.07;;;2.90;99.90;;;;;;5058129;28;20200;-71
2021/12/06 05:08:26;;;;;;;20.77;11.77;;;3.00;99.90;;;;;;5050266;28;20335;-71
2021/12/06 05:11:12;;;;;;;13.23;11.55;;;3.10;99.90;;;;;;5058363;28;20251;-72
2021/12/06 05:14:01;;;;;;;18.77;11.55;;;3.10;99.90;;;;;;5049262;28;20318;-71
2021/12/06 05:16:47;;;;;;;14.88;11.60;;;3.10;99.90;;;;;;5061071;28;20220;-71
2021/12/06 05:19:33;;;;;;;18.50;12.05;;;3.10;99.90;;;;;;5058704;28;20591;-72
2021/12/06 05:22:19;;;;;;;14.27;12.13;;;3.00;99.90;;;;;;5051277;28;20204;-72
2021/12/06 05:25:07;;;;;;;15.65;11.10;;;3.10;99.90;;;;;;5052937;28;20295;-71
2021/12/06 05:27:54;;;;;;;19.17;12.98;;;3.20;99.90;;;;;;5058043;28;20623;-72
2021/12/06 05:30:42;;;;;;;26.60;13.25;;;3.10;99.90;;;;;;5054284;28;20208;-72
2021/12/06 05:33:31;;;;;;;17.45;11.73;;;3.10;99.90;;;;;;5057306;28;20311;-71
2021/12/06 05:36:17;;;;;;;18.20;13.23;;;3.00;99.90;;;;;;5048567;28;20221;-71
2021/12/06 05:39:06;;;;;;;18.45;13.45;;;3.00;99.90;;;;;;5062626;28;20212;-71
2021/12/06 05:41:53;;;;;;;16.35;12.93;;;3.00;99.90;;;;;;5054828;28;20204;-72
2021/12/06 05:44:40;;;;;;;13.95;11.18;;;3.10;99.90;;;;;;5051100;28;20233;-72
2021/12/06 05:47:26;;;;;;;14.65;11.63;;;3.20;99.90;;;;;;5054266;28;20209;-72
2021/12/06 05:50:13;;;;;;;18.42;12.52;;;3.20;99.90;;;;;;5053479;28;20246;-71
2021/12/06 05:52:59;;;;;;;18.00;12.57;;;3.10;99.90;;;;;;5051121;28;20224;-71
2021/12/06 05:55:46;;;;;;;16.90;13.00;;;3.00;99.90;;;;;;5058550;28;20220;-71
2021/12/06 05:58:34;;;;;;;14.90;11.93;;;3.00;99.90;;;;;;5049605;28;20212;-71
2021/12/06 06:01:23;;;;;;;15.68;12.00;;;3.10;99.90;;;;;;5057079;28;20221;-71
2021/12/06 06:04:09;;;;;;;14.50;11.30;;;3.20;99.90;;;;;;5052583;28;20790;-70
2021/12/06 06:06:55;;;;;;;15.63;11.07;;;3.20;99.90;;;;;;5050721;28;20772;-72
2021/12/06 06:09:41;;;;;;;15.30;12.77;;;3.20;99.90;;;;;;5058380;28;20220;-72
2021/12/06 06:12:27;;;;;;;15.98;12.55;;;3.30;99.90;;;;;;5049356;28;20208;-72
2021/12/06 06:15:14;;;;;;;16.30;12.90;;;3.20;99.90;;;;;;5060877;28;20227;-72
2021/12/06 06:18:02;;;;;;;20.58;12.07;;;3.10;99.90;;;;;;5052156;28;20676;-71
2021/12/06 06:20:52;;;;;;;15.32;12.60;;;3.10;99.90;;;;;;5057239;28;20208;-72
2021/12/06 06:23:37;;;;;;;14.25;12.75;;;2.90;99.90;;;;;;5049000;28;20221;-72
2021/12/06 06:26:23;;;;;;;18.23;13.30;;;3.00;99.90;;;;;;5054854;28;20564;-71
2021/12/06 06:29:09;;;;;;;15.20;12.70;;;3.00;99.90;;;;;;5057113;28;20215;-72
2021/12/06 06:31:56;;;;;;;16.40;13.10;;;3.10;99.90;;;;;;5050226;28;20208;-71
2021/12/06 06:34:41;;;;;;;18.13;13.00;;;3.20;99.90;;;;;;5053352;28;20228;-72
2021/12/06 06:37:27;;;;;;;16.20;12.60;;;3.10;99.90;;;;;;5049642;28;20236;-71
2021/12/06 06:40:14;;;;;;;21.92;13.80;;;3.10;99.90;;;;;;5054180;28;20204;-71
2021/12/06 06:43:00;;;;;;;15.88;13.25;;;3.10;99.90;;;;;;5043745;28;20231;-72
2021/12/06 06:45:46;;;;;;;15.50;12.27;;;3.00;99.90;;;;;;5055748;28;20201;-71
2021/12/06 06:48:33;;;;;;;14.88;13.20;;;3.10;99.90;;;;;;5056797;28;20197;-72
2021/12/06 06:51:19;;;;;;;19.42;11.77;;;3.10;99.90;;;;;;5054452;28;20708;-71
2021/12/06 06:54:06;;;;;;;25.63;12.15;;;3.10;99.90;;;;;;5051930;28;20344;-71
2021/12/06 06:56:51;;;;;;;14.98;13.38;;;3.00;99.90;;;;;;5049472;28;20303;-71
2021/12/06 06:59:38;;;;;;;17.63;14.13;;;3.00;99.90;;;;;;5052402;28;20204;-71
2021/12/06 07:02:23;;;;;;;18.05;13.63;;;3.00;99.90;;;;;;5046026;28;20267;-70
2021/12/06 07:05:11;;;;;;;17.38;13.70;;;2.80;99.90;;;;;;5054716;28;20281;-72
2021/12/06 07:07:57;;;;;;;15.55;13.68;;;2.70;99.90;;;;;;5053652;28;20252;-72
2021/12/06 07:10:45;;;;;;;15.73;13.60;;;2.80;99.90;;;;;;5061903;28;20247;-72
2021/12/06 07:13:36;;;;;;;19.30;14.13;;;2.80;99.90;;;;;;5050527;28;20229;-71
2021/12/06 07:16:22;;;;;;;15.95;11.82;;;2.80;99.90;;;;;;5056682;28;20228;-71
2021/12/06 07:19:08;;;;;;;16.08;13.27;;;2.80;99.90;;;;;;5055481;28;20323;-71
2021/12/06 07:21:55;;;;;;;17.27;13.10;;;2.80;99.90;;;;;;5051235;28;20275;-71
2021/12/06 07:24:41;;;;;;;16.60;11.88;;;3.00;99.90;;;;;;5057877;28;20263;-71
2021/12/06 07:27:27;;;;;;;15.60;12.00;;;3.10;99.90;;;;;;5053995;28;20209;-72
2021/12/06 07:30:14;;;;;;;17.08;12.40;;;3.20;99.90;;;;;;5054254;28;20562;-71
2021/12/06 07:32:59;;;;;;;14.77;11.80;;;3.20;99.90;;;;;;5050802;28;20266;-72
2021/12/06 07:35:45;;;;;;;13.73;11.35;;;3.20;99.90;;;;;;5056040;28;20564;-71
2021/12/06 07:38:34;;;;;;;15.27;12.18;;;3.20;99.90;;;;;;5056264;28;20621;-71
2021/12/06 07:41:22;;;;;;;15.75;11.55;;;3.20;99.90;;;;;;5048411;28;20683;-72
2021/12/06 07:44:08;;;;;;;14.30;11.27;;;3.20;99.90;;;;;;5077623;22;20318;-71
2021/12/06 07:46:53;;;;;;;16.60;12.45;;;3.10;99.90;;;;;;5066213;28;20315;-71
2021/12/06 07:49:40;;;;;;;14.65;11.30;;;3.20;99.90;;;;;;5066804;28;20208;-71
2021/12/06 07:52:26;;;;;;;18.95;12.60;;;3.30;99.90;;;;;;5061679;28;20211;-70
2021/12/06 07:55:14;;;;;;;16.17;11.30;;;3.40;99.90;;;;;;5056511;28;20699;-71
2021/12/06 07:58:00;;;;;;;14.68;11.50;;;3.40;99.90;;;;;;5055577;28;20213;-71
2021/12/06 08:00:48;;;;;;;14.73;11.80;;;3.40;99.90;;;;;;5059945;28;20205;-70
2021/12/06 08:03:34;;;;;;;14.38;11.50;;;3.40;99.90;;;;;;5053441;28;20224;-71
2021/12/06 08:06:20;;;;;;;15.05;10.88;;;3.50;99.90;;;;;;5056905;28;20692;-71
2021/12/06 08:09:06;;;;;;;18.08;12.52;;;3.50;99.90;;;;;;5055760;28;20339;-71
2021/12/06 08:11:54;;;;;;;14.70;11.93;;;3.50;99.90;;;;;;5048419;28;20205;-71
2021/12/06 08:14:39;;;;;;;16.65;12.02;;;3.50;99.90;;;;;;5061880;28;20303;-71
2021/12/06 08:17:25;;;;;;;15.15;12.60;;;3.60;99.90;;;;;;5052296;28;20228;-71
2021/12/06 08:20:13;;;;;;;14.77;11.90;;;3.60;99.90;;;;;;5058513;28;20287;-70
2021/12/06 08:22:58;;;;;;;14.93;10.75;;;3.60;99.90;;;;;;5058377;28;20220;-71
2021/12/06 08:25:47;;;;;;;20.40;11.90;;;3.50;99.90;;;;;;5058727;28;20582;-71
2021/12/06 08:28:35;;;;;;;17.27;11.02;;;3.50;99.90;;;;;;5054477;28;20205;-71
2021/12/06 08:31:23;;;;;;;15.55;11.45;;;3.50;99.90;;;;;;5048822;28;20196;-71
2021/12/06 08:34:08;;;;;;;15.38;11.88;;;3.40;99.90;;;;;;5052937;28;20224;-71
2021/12/06 08:36:54;;;;;;;16.33;10.90;;;3.50;99.90;;;;;;5056295;28;20751;-71
2021/12/06 08:39:40;;;;;;;16.80;11.45;;;3.60;99.90;;;;;;5053527;28;20562;-71
2021/12/06 08:42:26;;;;;;;12.55;10.60;;;3.70;99.90;;;;;;5056376;28;20686;-71
2021/12/06 08:45:14;;;;;;;18.00;11.65;;;3.80;99.90;;;;;;5052410;28;20717;-71
2021/12/06 08:48:00;;;;;;;16.95;12.30;;;3.80;99.90;;;;;;5054640;28;20237;-71
2021/12/06 08:50:46;;;;;;;23.80;11.95;;;3.70;99.90;;;;;;5050299;28;20200;-71
2021/12/06 08:53:32;;;;;;;17.27;12.02;;;3.80;99.90;;;;;;5053042;28;20316;-71
2021/12/06 08:56:18;;;;;;;17.92;13.23;;;3.80;99.90;;;;;;5065420;28;20201;-71
2021/12/06 08:59:04;;;;;;;14.40;11.38;;;3.90;99.90;;;;;;5053599;28;20681;-71
2021/12/06 09:01:54;;;;;;;17.38;12.80;;;4.00;99.90;;;;;;5059162;28;20200;-71
2021/12/06 09:04:40;;;;;;;18.35;13.18;;;4.00;99.90;;;;;;5065169;28;20598;-71
2021/12/06 09:07:25;;;;;;;18.52;12.07;;;4.10;99.90;;;;;;5051222;28;20208;-71
2021/12/06 09:10:12;;;;;;;18.23;12.38;;;4.20;99.90;;;;;;5059456;28;20586;-71
2021/12/06 09:12:58;;;;;;;17.33;11.65;;;4.30;99.90;;;;;;5064930;28;20207;-71
2021/12/06 09:15:43;;;;;;;21.75;14.13;;;4.30;99.90;;;;;;5055544;28;20296;-71
2021/12/06 09:18:34;;;;;;;15.70;12.45;;;4.40;99.90;;;;;;5051601;28;20220;-71
2021/12/06 09:21:21;;;;;;;18.30;12.43;;;4.50;99.90;;;;;;5048221;28;20685;-71
2021/12/06 09:24:10;;;;;;;16.48;12.70;;;4.60;99.90;;;;;;5051855;28;20216;-71
2021/12/06 09:26:56;;;;;;;19.63;13.23;;;4.70;99.90;;;;;;5051223;28;20208;-71
2021/12/06 09:29:42;;;;;;;20.73;14.13;;;4.70;99.90;;;;;;5048875;28;20224;-69
2021/12/06 09:32:28;;;;;;;20.90;15.38;;;4.80;99.90;;;;;;5051291;28;20614;-69
2021/12/06 09:35:21;;;;;;;22.20;15.85;;;4.90;99.90;;;;;;5049388;28;20621;-69
2021/12/06 09:38:08;;;;;;;23.33;16.13;;;4.90;99.90;;;;;;5056556;28;20708;-69
2021/12/06 09:40:55;;;;;;;24.88;17.63;;;4.90;99.90;;;;;;5051291;28;20372;-69
2021/12/06 09:43:42;;;;;;;24.35;16.90;;;5.00;99.90;;;;;;5044942;28;20235;-68
2021/12/06 09:46:34;;;;;;;26.98;16.77;;;5.00;99.90;;;;;;5051478;28;20196;-69
2021/12/06 09:49:22;;;;;;;27.17;17.77;;;5.00;99.90;;;;;;5046992;28;20209;-69
2021/12/06 09:52:11;;;;;;;25.17;17.25;;;5.00;99.90;;;;;;5058862;28;20201;-69
2021/12/06 09:54:57;;;;;;;28.48;18.55;;;5.00;99.90;;;;;;5051227;28;20590;-69
2021/12/06 09:57:42;;;;;;;33.53;20.80;;;5.00;99.90;;;;;;5049543;28;20228;-69
2021/12/06 10:00:31;;;;;;;30.77;19.65;;;5.10;99.90;;;;;;5041961;28;20197;-69
2021/12/06 10:03:23;;;;;;;28.63;18.52;;;5.00;99.90;;;;;;5044939;28;20229;-69
2021/12/06 10:06:09;;;;;;;35.92;20.23;;;5.00;99.90;;;;;;5056823;28;20204;-69
2021/12/06 10:08:58;;;;;;;33.33;19.65;;;5.00;99.90;;;;;;5049595;28;20749;-69
2021/12/06 10:11:45;;;;;;;34.10;19.30;;;5.10;99.90;;;;;;5054375;28;20681;-69
2021/12/06 10:14:31;;;;;;;34.55;21.40;;;5.10;99.90;;;;;;5050029;28;20221;-69
2021/12/06 10:17:18;;;;;;;29.55;18.48;;;5.10;99.90;;;;;;5053529;28;20646;-69
2021/12/06 10:20:08;;;;;;;32.75;19.58;;;5.20;99.90;;;;;;5052409;28;20679;-69
2021/12/06 10:22:54;;;;;;;33.83;21.45;;;5.20;99.90;;;;;;5046986;28;20587;-69
2021/12/06 10:25:44;;;;;;;31.33;18.35;;;5.10;99.90;;;;;;5051214;28;20204;-69
2021/12/06 10:28:30;;;;;;;32.92;19.10;;;5.10;99.90;;;;;;5053710;28;20247;-69
2021/12/06 10:31:18;;;;;;;28.83;16.88;;;5.10;99.90;;;;;;5043808;28;20563;-69
2021/12/06 10:34:04;;;;;;;27.13;18.35;;;5.10;99.90;;;;;;5054138;28;20228;-68
2021/12/06 10:36:49;;;;;;;32.08;18.92;;;5.10;99.90;;;;;;5052460;28;20208;-69
2021/12/06 10:39:37;;;;;;;36.33;22.02;;;5.10;99.90;;;;;;5048647;28;20221;-69
2021/12/06 10:42:29;;;;;;;40.60;25.50;;;5.10;99.90;;;;;;5055113;28;20302;-69
2021/12/06 10:45:18;;;;;;;39.50;24.58;;;5.10;99.90;;;;;;5053164;28;20303;-69
2021/12/06 10:48:07;;;;;;;40.75;24.38;;;5.10;99.90;;;;;;5058112;28;20193;-69
2021/12/06 10:51:00;;;;;;;44.60;25.05;;;5.00;99.90;;;;;;5048913;28;20237;-69
2021/12/06 10:53:51;;;;;;;51.90;25.70;;;5.00;99.90;;;;;;5053141;28;20742;-69
2021/12/06 10:56:42;;;;;;;46.97;25.17;;;4.80;99.90;;;;;;5051706;28;21979;-69
2021/12/06 10:59:33;;;;;;;51.83;27.80;;;4.90;99.90;;;;;;5050922;28;20221;-69
2021/12/06 11:02:19;;;;;;;42.53;24.70;;;4.80;99.90;;;;;;5054561;28;20205;-68
2021/12/06 11:05:23;;;;;;;43.50;26.15;;;4.80;99.90;;;;;;5049636;28;20362;-69
2021/12/06 11:08:11;;;;;;;37.03;23.60;;;4.80;99.90;;;;;;5048807;28;20749;-69
2021/12/06 11:10:59;;;;;;;39.85;23.77;;;4.80;99.90;;;;;;5055324;28;20200;-69
2021/12/06 11:13:48;;;;;;;41.08;23.92;;;4.80;99.90;;;;;;5057925;28;20717;-69
2021/12/06 11:16:38;;;;;;;44.47;24.85;;;4.80;99.90;;;;;;5053404;28;20205;-68
2021/12/06 11:19:28;;;;;;;39.10;24.80;;;4.70;99.90;;;;;;5052485;28;20216;-69
2021/12/06 11:22:19;;;;;;;39.40;24.52;;;4.70;99.90;;;;;;5049519;28;20702;-68
2021/12/06 11:25:10;;;;;;;48.55;27.42;;;4.70;99.90;;;;;;5053909;28;20343;-69
2021/12/06 11:27:56;;;;;;;42.00;23.95;;;4.70;99.90;;;;;;5056558;28;20192;-68
2021/12/06 11:30:41;;;;;;;43.47;25.17;;;4.70;99.90;;;;;;5058704;28;20334;-68
2021/12/06 11:33:31;;;;;;;47.42;27.60;;;4.70;99.90;;;;;;5059585;28;20696;-69
2021/12/06 11:36:22;;;;;;;52.80;31.27;;;4.70;99.90;;;;;;5058592;28;20283;-68
2021/12/06 11:39:11;;;;;;;46.53;29.42;;;4.70;99.90;;;;;;5050278;28;20344;-69
2021/12/06 11:41:59;;;;;;;49.38;29.13;;;4.80;99.90;;;;;;5060039;28;20562;-69
2021/12/06 11:44:46;;;;;;;52.78;33.75;;;4.70;99.90;;;;;;5059504;28;20437;-69
2021/12/06 11:47:32;;;;;;;57.08;32.10;;;4.70;99.90;;;;;;5051380;28;20197;-68
2021/12/06 11:50:27;;;;;;;58.42;32.35;;;4.70;99.90;;;;;;5055142;28;20234;-69
2021/12/06 11:53:13;;;;;;;51.38;27.50;;;4.80;99.90;;;;;;5048138;28;20201;-69
2021/12/06 11:56:02;;;;;;;44.17;24.92;;;4.90;99.90;;;;;;5052135;28;20569;-69
2021/12/06 11:58:51;;;;;;;46.58;25.63;;;4.90;99.90;;;;;;5057047;28;20224;-68
2021/12/06 12:01:40;;;;;;;46.03;27.42;;;4.90;99.90;;;;;;5054262;28;20279;-69
2021/12/06 12:04:29;;;;;;;52.03;27.27;;;4.80;99.90;;;;;;5053468;28;20267;-69
2021/12/06 12:07:16;;;;;;;48.67;30.02;;;4.80;99.90;;;;;;5045685;28;20236;-68
2021/12/06 12:10:03;;;;;;;41.95;26.85;;;4.80;99.90;;;;;;5048132;28;20610;-69
2021/12/06 12:12:54;;;;;;;41.90;27.90;;;4.80;99.90;;;;;;5051714;28;20203;-68
2021/12/06 12:15:40;;;;;;;49.63;28.48;;;4.80;99.90;;;;;;5057044;28;20201;-68
2021/12/06 12:18:26;;;;;;;39.72;27.42;;;4.80;99.90;;;;;;5050262;28;20743;-69
2021/12/06 12:21:12;;;;;;;44.30;28.38;;;4.80;99.90;;;;;;5054375;28;20300;-71
2021/12/06 12:23:59;;;;;;;42.00;26.55;;;4.70;99.90;;;;;;5056456;28;20732;-71
2021/12/06 12:26:55;;;;;;;43.97;25.73;;;4.70;99.90;;;;;;5054251;28;20208;-71
2021/12/06 12:29:40;;;;;;;40.03;24.88;;;4.60;99.90;;;;;;5056652;28;20220;-71
2021/12/06 12:32:28;;;;;;;33.28;23.58;;;4.50;99.90;;;;;;5060186;28;20693;-71
2021/12/06 12:35:16;;;;;;;40.33;26.73;;;4.50;99.90;;;;;;5048998;28;20228;-71
2021/12/06 12:38:02;;;;;;;40.90;26.15;;;4.60;99.90;;;;;;5046549;28;20970;-71
2021/12/06 12:40:54;;;;;;;41.42;28.55;;;4.60;99.90;;;;;;5055534;28;20208;-70
2021/12/06 12:43:43;;;;;;;43.05;28.10;;;4.70;99.90;;;;;;5056630;28;20224;-70
2021/12/06 12:46:35;;;;;;;48.45;30.35;;;4.80;99.90;;;;;;5050802;28;20204;-69
2021/12/06 12:49:24;;;;;;;43.90;26.40;;;4.90;99.90;;;;;;5049467;28;20604;-69
2021/12/06 12:52:10;;;;;;;41.88;26.50;;;5.00;99.90;;;;;;5055051;28;20205;-69
2021/12/06 12:54:57;;;;;;;41.38;26.50;;;5.10;99.90;;;;;;5055634;28;20217;-69
2021/12/06 12:57:44;;;;;;;38.00;24.60;;;5.10;99.90;;;;;;5045990;28;20221;-69
2021/12/06 13:00:31;;;;;;;42.10;25.52;;;5.20;99.90;;;;;;5055080;28;20629;-69
2021/12/06 13:03:35;;;;;;;34.50;23.95;;;5.20;99.90;;;;;;5056697;28;20615;-70
2021/12/06 13:06:24;;;;;;;32.50;23.08;;;5.30;99.90;;;;;;5053093;28;20556;-69
2021/12/06 13:09:28;;;;;;;34.70;21.70;;;5.40;99.90;;;;;;5053484;28;20196;-70
2021/12/06 13:12:16;;;;;;;32.63;21.60;;;5.30;99.90;;;;;;5049348;28;20336;-69
2021/12/06 13:15:15;;;;;;;32.42;22.75;;;5.30;99.90;;;;;;5049968;28;20594;-69
2021/12/06 13:18:02;;;;;;;37.15;22.90;;;5.40;99.90;;;;;;5039039;28;20225;-69
2021/12/06 13:20:47;;;;;;;29.45;21.55;;;5.40;99.90;;;;;;5051290;28;20251;-69
2021/12/06 13:23:33;;;;;;;26.70;19.42;;;5.50;99.90;;;;;;5057258;28;20314;-69
2021/12/06 13:26:18;;;;;;;30.25;19.15;;;5.50;99.90;;;;;;5049919;28;20721;-69
2021/12/06 13:29:06;;;;;;;27.90;18.63;;;5.60;99.90;;;;;;5050618;28;20547;-69
2021/12/06 13:31:54;;;;;;;31.38;19.42;;;5.60;99.90;;;;;;5045224;28;20680;-69
2021/12/06 13:34:41;;;;;;;26.98;19.20;;;5.60;99.90;;;;;;5056461;28;20225;-68
2021/12/06 13:37:28;;;;;;;22.98;17.20;;;5.60;99.90;;;;;;5055450;28;20421;-69
2021/12/06 13:40:19;;;;;;;30.88;19.88;;;5.70;99.90;;;;;;5053731;28;20584;-69
2021/12/06 13:43:10;;;;;;;31.42;20.08;;;5.60;99.90;;;;;;5050877;28;20678;-71
2021/12/06 13:45:58;;;;;;;31.75;20.08;;;5.60;99.90;;;;;;5050010;28;20211;-70
2021/12/06 13:48:47;;;;;;;28.52;19.75;;;5.60;99.90;;;;;;5058134;28;20347;-71
2021/12/06 13:51:42;;;;;;;25.25;19.48;;;5.70;99.90;;;;;;5056035;28;20275;-71
2021/12/06 13:54:31;;;;;;;26.83;19.02;;;5.70;99.90;;;;;;5059244;28;20225;-70
2021/12/06 13:57:16;;;;;;;26.73;18.88;;;5.80;99.90;;;;;;5050201;28;20205;-71
2021/12/06 14:00:11;;;;;;;25.85;17.77;;;5.80;99.90;;;;;;5058219;28;20205;-71
2021/12/06 14:02:59;;;;;;;26.25;17.48;;;5.80;99.90;;;;;;5056139;28;20199;-71
2021/12/06 14:05:48;;;;;;;25.20;16.38;;;5.80;99.90;;;;;;5054345;28;20204;-71
2021/12/06 14:08:35;;;;;;;25.88;19.42;;;5.80;99.90;;;;;;5055385;28;20213;-71
2021/12/06 14:11:23;;;;;;;25.88;16.83;;;5.80;99.90;;;;;;5054885;28;20267;-71
2021/12/06 14:14:12;;;;;;;23.67;16.65;;;5.80;99.90;;;;;;5054910;28;20229;-71
2021/12/06 14:16:59;;;;;;;22.15;15.80;;;5.80;99.90;;;;;;5041684;28;20721;-71
2021/12/06 14:19:46;;;;;;;23.98;16.85;;;5.80;99.90;;;;;;5054359;28;20496;-71
2021/12/06 14:22:34;;;;;;;22.95;16.88;;;5.90;99.90;;;;;;5061091;28;20327;-71
2021/12/06 14:25:21;;;;;;;24.17;16.65;;;5.80;99.90;;;;;;5047043;28;20335;-71
2021/12/06 14:28:10;;;;;;;19.58;15.02;;;5.80;99.90;;;;;;5052411;28;20208;-71
2021/12/06 14:30:58;;;;;;;20.08;15.52;;;5.70;99.90;;;;;;5055179;28;20200;-71
2021/12/06 14:33:44;;;;;;;22.98;16.73;;;5.70;99.90;;;;;;5056808;28;20235;-71